sensor_id;sensor_type;location;lat;lon;timestamp;P1;durP1;ratioP1;P2;durP2;ratioP2
40339;SDS011;26044;50.864;20.658;2023-02-28T00:01:25;59.15;;;23.20;;
40339;SDS011;26044;50.864;20.658;2023-02-28T00:03:53;56.40;;;20.75;;
40339;SDS011;26044;50.864;20.658;2023-02-28T00:06:20;55.20;;;19.98;;
40339;SDS011;26044;50.864;20.658;2023-02-28T00:08:48;54.25;;;21.20;;
40339;SDS011;26044;50.864;20.658;2023-02-28T00:11:17;56.35;;;20.83;;
40339;SDS011;26044;50.864;20.658;2023-02-28T00:13:45;49.35;;;17.88;;
40339;SDS011;26044;50.864;20.658;2023-02-28T00:16:14;40.13;;;16.92;;
40339;SDS011;26044;50.864;20.658;2023-02-28T00:18:42;43.03;;;16.67;;
40339;SDS011;26044;50.864;20.658;2023-02-28T00:21:10;47.03;;;16.35;;
40339;SDS011;26044;50.864;20.658;2023-02-28T00:23:40;48.45;;;18.75;;
40339;SDS011;26044;50.864;20.658;2023-02-28T00:26:07;52.38;;;19.27;;
40339;SDS011;26044;50.864;20.658;2023-02-28T00:28:36;53.35;;;19.73;;
40339;SDS011;26044;50.864;20.658;2023-02-28T00:31:03;49.63;;;19.15;;
40339;SDS011;26044;50.864;20.658;2023-02-28T00:33:32;48.70;;;18.25;;
40339;SDS011;26044;50.864;20.658;2023-02-28T00:36:08;55.53;;;20.45;;
40339;SDS011;26044;50.864;20.658;2023-02-28T00:38:36;45.75;;;18.67;;
40339;SDS011;26044;50.864;20.658;2023-02-28T00:41:05;51.40;;;20.00;;
40339;SDS011;26044;50.864;20.658;2023-02-28T00:43:33;51.03;;;19.80;;
40339;SDS011;26044;50.864;20.658;2023-02-28T00:46:04;44.05;;;18.15;;
40339;SDS011;26044;50.864;20.658;2023-02-28T00:48:32;48.13;;;17.00;;
40339;SDS011;26044;50.864;20.658;2023-02-28T00:50:59;42.78;;;15.60;;
40339;SDS011;26044;50.864;20.658;2023-02-28T00:53:27;41.90;;;16.38;;
40339;SDS011;26044;50.864;20.658;2023-02-28T00:55:54;42.50;;;15.82;;
40339;SDS011;26044;50.864;20.658;2023-02-28T00:58:22;40.15;;;15.40;;
40339;SDS011;26044;50.864;20.658;2023-02-28T01:00:50;40.97;;;15.82;;
40339;SDS011;26044;50.864;20.658;2023-02-28T01:03:18;41.50;;;15.48;;
40339;SDS011;26044;50.864;20.658;2023-02-28T01:05:46;46.10;;;16.92;;
40339;SDS011;26044;50.864;20.658;2023-02-28T01:08:15;54.15;;;19.88;;
40339;SDS011;26044;50.864;20.658;2023-02-28T01:10:42;61.03;;;20.75;;
40339;SDS011;26044;50.864;20.658;2023-02-28T01:13:10;47.90;;;18.65;;
40339;SDS011;26044;50.864;20.658;2023-02-28T01:15:38;44.42;;;18.48;;
40339;SDS011;26044;50.864;20.658;2023-02-28T01:18:07;45.83;;;18.03;;
40339;SDS011;26044;50.864;20.658;2023-02-28T01:20:38;48.30;;;19.90;;
40339;SDS011;26044;50.864;20.658;2023-02-28T01:23:06;50.53;;;21.17;;
40339;SDS011;26044;50.864;20.658;2023-02-28T01:25:35;47.88;;;19.67;;
40339;SDS011;26044;50.864;20.658;2023-02-28T01:28:03;53.97;;;20.27;;
40339;SDS011;26044;50.864;20.658;2023-02-28T01:30:30;45.63;;;20.10;;
40339;SDS011;26044;50.864;20.658;2023-02-28T01:32:58;46.55;;;19.10;;
40339;SDS011;26044;50.864;20.658;2023-02-28T01:35:27;47.92;;;20.95;;
40339;SDS011;26044;50.864;20.658;2023-02-28T01:37:54;47.08;;;18.48;;
40339;SDS011;26044;50.864;20.658;2023-02-28T01:40:30;37.65;;;15.52;;
40339;SDS011;26044;50.864;20.658;2023-02-28T01:42:57;40.67;;;15.60;;
40339;SDS011;26044;50.864;20.658;2023-02-28T01:45:25;38.67;;;15.95;;
40339;SDS011;26044;50.864;20.658;2023-02-28T01:48:03;42.30;;;17.67;;
40339;SDS011;26044;50.864;20.658;2023-02-28T01:50:33;39.40;;;16.25;;
40339;SDS011;26044;50.864;20.658;2023-02-28T01:55:29;35.42;;;14.48;;
40339;SDS011;26044;50.864;20.658;2023-02-28T01:57:58;34.63;;;14.40;;
40339;SDS011;26044;50.864;20.658;2023-02-28T02:00:28;33.28;;;12.98;;
40339;SDS011;26044;50.864;20.658;2023-02-28T02:03:08;34.17;;;14.00;;
40339;SDS011;26044;50.864;20.658;2023-02-28T02:05:36;32.53;;;13.32;;
40339;SDS011;26044;50.864;20.658;2023-02-28T02:08:04;32.42;;;14.18;;
40339;SDS011;26044;50.864;20.658;2023-02-28T02:10:39;32.85;;;13.57;;
40339;SDS011;26044;50.864;20.658;2023-02-28T02:13:29;35.63;;;14.63;;
40339;SDS011;26044;50.864;20.658;2023-02-28T02:18:48;32.38;;;13.50;;
40339;SDS011;26044;50.864;20.658;2023-02-28T02:24:00;33.40;;;14.10;;
40339;SDS011;26044;50.864;20.658;2023-02-28T02:34:29;32.53;;;13.77;;
40339;SDS011;26044;50.864;20.658;2023-02-28T02:39:53;33.25;;;13.82;;
40339;SDS011;26044;50.864;20.658;2023-02-28T02:42:21;35.83;;;14.05;;
40339;SDS011;26044;50.864;20.658;2023-02-28T02:44:54;30.50;;;12.32;;
40339;SDS011;26044;50.864;20.658;2023-02-28T02:47:22;33.80;;;14.93;;
40339;SDS011;26044;50.864;20.658;2023-02-28T02:49:52;35.70;;;13.63;;
40339;SDS011;26044;50.864;20.658;2023-02-28T02:52:24;34.10;;;14.05;;
40339;SDS011;26044;50.864;20.658;2023-02-28T02:54:52;35.35;;;14.07;;
40339;SDS011;26044;50.864;20.658;2023-02-28T03:00:23;34.40;;;14.00;;
40339;SDS011;26044;50.864;20.658;2023-02-28T03:02:52;36.22;;;14.77;;
40339;SDS011;26044;50.864;20.658;2023-02-28T03:05:22;32.25;;;14.05;;
40339;SDS011;26044;50.864;20.658;2023-02-28T03:11:01;38.90;;;15.55;;
40339;SDS011;26044;50.864;20.658;2023-02-28T03:15:40;35.65;;;15.35;;
40339;SDS011;26044;50.864;20.658;2023-02-28T03:18:14;35.30;;;15.80;;
40339;SDS011;26044;50.864;20.658;2023-02-28T03:26:32;42.60;;;16.70;;
40339;SDS011;26044;50.864;20.658;2023-02-28T03:29:03;40.63;;;16.75;;
40339;SDS011;26044;50.864;20.658;2023-02-28T03:32:06;41.42;;;16.77;;
40339;SDS011;26044;50.864;20.658;2023-02-28T03:34:27;41.03;;;16.80;;
40339;SDS011;26044;50.864;20.658;2023-02-28T03:37:01;43.13;;;17.48;;
40339;SDS011;26044;50.864;20.658;2023-02-28T03:39:34;40.20;;;17.20;;
40339;SDS011;26044;50.864;20.658;2023-02-28T03:42:09;45.58;;;18.50;;
40339;SDS011;26044;50.864;20.658;2023-02-28T03:47:06;50.65;;;19.98;;
40339;SDS011;26044;50.864;20.658;2023-02-28T03:49:36;47.47;;;20.15;;
40339;SDS011;26044;50.864;20.658;2023-02-28T03:52:09;44.58;;;19.88;;
40339;SDS011;26044;50.864;20.658;2023-02-28T03:54:41;42.30;;;18.50;;
40339;SDS011;26044;50.864;20.658;2023-02-28T03:57:22;44.67;;;18.35;;
40339;SDS011;26044;50.864;20.658;2023-02-28T04:00:26;42.90;;;18.67;;
40339;SDS011;26044;50.864;20.658;2023-02-28T04:02:45;47.45;;;18.80;;
40339;SDS011;26044;50.864;20.658;2023-02-28T04:05:21;42.17;;;19.48;;
40339;SDS011;26044;50.864;20.658;2023-02-28T04:07:49;44.05;;;19.08;;
40339;SDS011;26044;50.864;20.658;2023-02-28T04:10:17;42.67;;;18.88;;
40339;SDS011;26044;50.864;20.658;2023-02-28T04:12:44;49.22;;;23.40;;
40339;SDS011;26044;50.864;20.658;2023-02-28T04:15:12;43.92;;;19.67;;
40339;SDS011;26044;50.864;20.658;2023-02-28T04:17:39;47.67;;;19.85;;
40339;SDS011;26044;50.864;20.658;2023-02-28T04:20:07;55.78;;;22.50;;
40339;SDS011;26044;50.864;20.658;2023-02-28T04:22:38;51.38;;;22.67;;
40339;SDS011;26044;50.864;20.658;2023-02-28T04:25:06;48.47;;;22.05;;
40339;SDS011;26044;50.864;20.658;2023-02-28T04:27:33;50.17;;;22.70;;
40339;SDS011;26044;50.864;20.658;2023-02-28T04:30:01;48.45;;;22.02;;
40339;SDS011;26044;50.864;20.658;2023-02-28T04:32:28;47.97;;;20.77;;
40339;SDS011;26044;50.864;20.658;2023-02-28T04:34:55;45.65;;;19.70;;
40339;SDS011;26044;50.864;20.658;2023-02-28T04:37:27;46.63;;;20.08;;
40339;SDS011;26044;50.864;20.658;2023-02-28T04:39:55;43.30;;;19.15;;
40339;SDS011;26044;50.864;20.658;2023-02-28T04:42:24;42.88;;;18.17;;
40339;SDS011;26044;50.864;20.658;2023-02-28T04:44:51;47.30;;;20.35;;
40339;SDS011;26044;50.864;20.658;2023-02-28T04:47:20;38.38;;;18.25;;
40339;SDS011;26044;50.864;20.658;2023-02-28T04:49:47;47.33;;;20.27;;
40339;SDS011;26044;50.864;20.658;2023-02-28T04:52:14;49.58;;;21.83;;
40339;SDS011;26044;50.864;20.658;2023-02-28T04:54:42;54.20;;;22.67;;
40339;SDS011;26044;50.864;20.658;2023-02-28T04:57:09;50.13;;;22.20;;
40339;SDS011;26044;50.864;20.658;2023-02-28T04:59:36;50.78;;;21.00;;
40339;SDS011;26044;50.864;20.658;2023-02-28T05:02:04;51.05;;;22.48;;
40339;SDS011;26044;50.864;20.658;2023-02-28T05:04:33;46.70;;;20.77;;
40339;SDS011;26044;50.864;20.658;2023-02-28T05:07:03;44.23;;;19.33;;
40339;SDS011;26044;50.864;20.658;2023-02-28T05:09:30;43.72;;;19.02;;
40339;SDS011;26044;50.864;20.658;2023-02-28T05:11:59;42.20;;;18.55;;
40339;SDS011;26044;50.864;20.658;2023-02-28T05:14:26;40.45;;;18.90;;
40339;SDS011;26044;50.864;20.658;2023-02-28T05:16:53;40.53;;;16.90;;
40339;SDS011;26044;50.864;20.658;2023-02-28T05:19:20;39.85;;;17.65;;
40339;SDS011;26044;50.864;20.658;2023-02-28T05:21:49;45.65;;;18.40;;
40339;SDS011;26044;50.864;20.658;2023-02-28T05:24:17;40.90;;;18.52;;
40339;SDS011;26044;50.864;20.658;2023-02-28T05:26:53;45.67;;;20.67;;
40339;SDS011;26044;50.864;20.658;2023-02-28T05:29:22;53.47;;;24.00;;
40339;SDS011;26044;50.864;20.658;2023-02-28T05:31:49;46.78;;;18.88;;
40339;SDS011;26044;50.864;20.658;2023-02-28T05:34:17;49.80;;;22.88;;
40339;SDS011;26044;50.864;20.658;2023-02-28T05:36:46;54.40;;;22.45;;
40339;SDS011;26044;50.864;20.658;2023-02-28T05:39:13;51.10;;;23.58;;
40339;SDS011;26044;50.864;20.658;2023-02-28T05:41:41;47.03;;;21.27;;
40339;SDS011;26044;50.864;20.658;2023-02-28T05:44:09;43.63;;;19.48;;
40339;SDS011;26044;50.864;20.658;2023-02-28T05:46:36;42.88;;;19.17;;
40339;SDS011;26044;50.864;20.658;2023-02-28T05:49:04;45.83;;;19.20;;
40339;SDS011;26044;50.864;20.658;2023-02-28T05:51:32;50.90;;;20.80;;
40339;SDS011;26044;50.864;20.658;2023-02-28T05:54:02;46.70;;;21.58;;
40339;SDS011;26044;50.864;20.658;2023-02-28T05:56:30;49.05;;;21.77;;
40339;SDS011;26044;50.864;20.658;2023-02-28T05:58:58;51.03;;;22.73;;
40339;SDS011;26044;50.864;20.658;2023-02-28T06:01:33;76.35;;;33.92;;
40339;SDS011;26044;50.864;20.658;2023-02-28T06:04:00;80.90;;;34.60;;
40339;SDS011;26044;50.864;20.658;2023-02-28T06:06:28;70.15;;;29.83;;
40339;SDS011;26044;50.864;20.658;2023-02-28T06:08:56;73.10;;;31.83;;
40339;SDS011;26044;50.864;20.658;2023-02-28T06:11:23;66.20;;;29.73;;
40339;SDS011;26044;50.864;20.658;2023-02-28T06:13:54;57.28;;;25.83;;
40339;SDS011;26044;50.864;20.658;2023-02-28T06:16:23;53.05;;;25.70;;
40339;SDS011;26044;50.864;20.658;2023-02-28T06:18:50;60.83;;;26.45;;
40339;SDS011;26044;50.864;20.658;2023-02-28T06:21:18;64.97;;;26.40;;
40339;SDS011;26044;50.864;20.658;2023-02-28T06:23:45;60.95;;;27.33;;
40339;SDS011;26044;50.864;20.658;2023-02-28T06:26:13;64.03;;;29.15;;
40339;SDS011;26044;50.864;20.658;2023-02-28T06:28:40;64.68;;;29.05;;
40339;SDS011;26044;50.864;20.658;2023-02-28T06:31:12;65.60;;;29.38;;
40339;SDS011;26044;50.864;20.658;2023-02-28T06:33:40;70.00;;;30.45;;
40339;SDS011;26044;50.864;20.658;2023-02-28T06:36:08;70.93;;;31.27;;
40339;SDS011;26044;50.864;20.658;2023-02-28T06:38:35;68.93;;;30.40;;
40339;SDS011;26044;50.864;20.658;2023-02-28T06:41:03;60.50;;;25.13;;
40339;SDS011;26044;50.864;20.658;2023-02-28T06:43:33;55.00;;;25.95;;
40339;SDS011;26044;50.864;20.658;2023-02-28T06:48:29;63.40;;;26.35;;
40339;SDS011;26044;50.864;20.658;2023-02-28T06:51:13;51.00;;;22.73;;
40339;SDS011;26044;50.864;20.658;2023-02-28T06:53:41;53.97;;;21.23;;
40339;SDS011;26044;50.864;20.658;2023-02-28T06:56:09;46.03;;;20.80;;
40339;SDS011;26044;50.864;20.658;2023-02-28T06:58:36;47.55;;;21.10;;
40339;SDS011;26044;50.864;20.658;2023-02-28T07:01:09;45.20;;;20.08;;
40339;SDS011;26044;50.864;20.658;2023-02-28T07:03:38;47.28;;;21.58;;
40339;SDS011;26044;50.864;20.658;2023-02-28T07:06:05;47.45;;;19.52;;
40339;SDS011;26044;50.864;20.658;2023-02-28T07:08:33;46.13;;;18.15;;
40339;SDS011;26044;50.864;20.658;2023-02-28T07:11:02;43.17;;;19.17;;
40339;SDS011;26044;50.864;20.658;2023-02-28T07:13:29;41.63;;;18.65;;
40339;SDS011;26044;50.864;20.658;2023-02-28T07:15:58;41.13;;;18.52;;
40339;SDS011;26044;50.864;20.658;2023-02-28T07:18:25;40.35;;;17.67;;
40339;SDS011;26044;50.864;20.658;2023-02-28T07:20:53;42.22;;;17.33;;
40339;SDS011;26044;50.864;20.658;2023-02-28T07:23:20;46.30;;;17.25;;
40339;SDS011;26044;50.864;20.658;2023-02-28T07:25:47;46.85;;;18.48;;
40339;SDS011;26044;50.864;20.658;2023-02-28T07:28:15;44.22;;;18.60;;
40339;SDS011;26044;50.864;20.658;2023-02-28T07:30:42;41.50;;;17.73;;
40339;SDS011;26044;50.864;20.658;2023-02-28T07:33:10;41.17;;;15.57;;
40339;SDS011;26044;50.864;20.658;2023-02-28T07:35:37;38.72;;;15.15;;
40339;SDS011;26044;50.864;20.658;2023-02-28T07:38:04;38.65;;;15.15;;
40339;SDS011;26044;50.864;20.658;2023-02-28T07:40:34;36.95;;;15.85;;
40339;SDS011;26044;50.864;20.658;2023-02-28T07:43:01;29.17;;;11.20;;
40339;SDS011;26044;50.864;20.658;2023-02-28T07:45:29;30.25;;;12.02;;
40339;SDS011;26044;50.864;20.658;2023-02-28T07:47:57;28.42;;;11.20;;
40339;SDS011;26044;50.864;20.658;2023-02-28T07:50:25;35.38;;;11.15;;
40339;SDS011;26044;50.864;20.658;2023-02-28T07:52:53;27.80;;;10.70;;
40339;SDS011;26044;50.864;20.658;2023-02-28T07:55:21;31.73;;;11.98;;
40339;SDS011;26044;50.864;20.658;2023-02-28T07:57:48;36.15;;;12.73;;
40339;SDS011;26044;50.864;20.658;2023-02-28T08:00:15;31.70;;;12.63;;
40339;SDS011;26044;50.864;20.658;2023-02-28T08:02:43;30.13;;;12.55;;
40339;SDS011;26044;50.864;20.658;2023-02-28T08:05:10;27.60;;;12.20;;
40339;SDS011;26044;50.864;20.658;2023-02-28T08:07:37;31.98;;;12.65;;
40339;SDS011;26044;50.864;20.658;2023-02-28T08:10:05;33.42;;;13.85;;
40339;SDS011;26044;50.864;20.658;2023-02-28T08:12:32;34.10;;;13.35;;
40339;SDS011;26044;50.864;20.658;2023-02-28T08:15:00;33.83;;;12.50;;
40339;SDS011;26044;50.864;20.658;2023-02-28T08:17:27;32.47;;;12.70;;
40339;SDS011;26044;50.864;20.658;2023-02-28T08:19:54;35.83;;;13.80;;
40339;SDS011;26044;50.864;20.658;2023-02-28T08:22:21;36.20;;;14.88;;
40339;SDS011;26044;50.864;20.658;2023-02-28T08:24:49;33.80;;;13.80;;
40339;SDS011;26044;50.864;20.658;2023-02-28T08:27:16;34.75;;;14.13;;
40339;SDS011;26044;50.864;20.658;2023-02-28T08:29:43;27.73;;;11.05;;
40339;SDS011;26044;50.864;20.658;2023-02-28T08:32:10;22.48;;;8.50;;
40339;SDS011;26044;50.864;20.658;2023-02-28T08:34:54;24.17;;;8.57;;
40339;SDS011;26044;50.864;20.658;2023-02-28T08:37:22;26.92;;;9.57;;
40339;SDS011;26044;50.864;20.658;2023-02-28T08:39:49;24.40;;;8.98;;
40339;SDS011;26044;50.864;20.658;2023-02-28T08:42:19;24.23;;;8.05;;
40339;SDS011;26044;50.864;20.658;2023-02-28T08:44:47;24.95;;;9.70;;
40339;SDS011;26044;50.864;20.658;2023-02-28T08:47:16;26.13;;;9.93;;
40339;SDS011;26044;50.864;20.658;2023-02-28T08:49:44;21.77;;;9.10;;
40339;SDS011;26044;50.864;20.658;2023-02-28T08:52:11;24.67;;;9.85;;
40339;SDS011;26044;50.864;20.658;2023-02-28T08:54:38;25.83;;;9.75;;
40339;SDS011;26044;50.864;20.658;2023-02-28T08:57:06;24.13;;;10.40;;
40339;SDS011;26044;50.864;20.658;2023-02-28T08:59:33;26.20;;;9.90;;
40339;SDS011;26044;50.864;20.658;2023-02-28T09:02:00;29.33;;;9.95;;
40339;SDS011;26044;50.864;20.658;2023-02-28T09:04:27;29.00;;;10.35;;
40339;SDS011;26044;50.864;20.658;2023-02-28T09:06:57;27.33;;;9.82;;
40339;SDS011;26044;50.864;20.658;2023-02-28T09:09:24;23.25;;;9.52;;
40339;SDS011;26044;50.864;20.658;2023-02-28T09:11:51;29.23;;;10.23;;
40339;SDS011;26044;50.864;20.658;2023-02-28T09:14:18;27.05;;;10.02;;
40339;SDS011;26044;50.864;20.658;2023-02-28T09:16:46;26.50;;;9.82;;
40339;SDS011;26044;50.864;20.658;2023-02-28T09:19:13;25.48;;;9.63;;
40339;SDS011;26044;50.864;20.658;2023-02-28T09:21:40;25.25;;;9.88;;
40339;SDS011;26044;50.864;20.658;2023-02-28T09:24:08;26.98;;;9.65;;
40339;SDS011;26044;50.864;20.658;2023-02-28T09:26:35;28.55;;;10.85;;
40339;SDS011;26044;50.864;20.658;2023-02-28T09:29:12;29.52;;;11.38;;
40339;SDS011;26044;50.864;20.658;2023-02-28T09:31:40;27.08;;;10.90;;
40339;SDS011;26044;50.864;20.658;2023-02-28T09:34:08;26.08;;;9.57;;
40339;SDS011;26044;50.864;20.658;2023-02-28T09:36:35;26.58;;;10.60;;
40339;SDS011;26044;50.864;20.658;2023-02-28T09:39:11;24.55;;;8.90;;
40339;SDS011;26044;50.864;20.658;2023-02-28T09:41:44;23.88;;;9.45;;
40339;SDS011;26044;50.864;20.658;2023-02-28T09:46:48;25.75;;;10.00;;
40339;SDS011;26044;50.864;20.658;2023-02-28T09:49:18;22.13;;;8.85;;
40339;SDS011;26044;50.864;20.658;2023-02-28T09:51:52;26.00;;;10.00;;
40339;SDS011;26044;50.864;20.658;2023-02-28T09:54:24;27.15;;;10.77;;
40339;SDS011;26044;50.864;20.658;2023-02-28T09:57:01;28.23;;;10.43;;
40339;SDS011;26044;50.864;20.658;2023-02-28T10:07:23;27.92;;;11.05;;
40339;SDS011;26044;50.864;20.658;2023-02-28T10:09:53;27.70;;;10.70;;
40339;SDS011;26044;50.864;20.658;2023-02-28T10:12:22;28.10;;;11.23;;
40339;SDS011;26044;50.864;20.658;2023-02-28T10:14:51;26.90;;;11.40;;
40339;SDS011;26044;50.864;20.658;2023-02-28T10:17:21;27.70;;;11.95;;
40339;SDS011;26044;50.864;20.658;2023-02-28T10:24:44;27.83;;;9.07;;
40339;SDS011;26044;50.864;20.658;2023-02-28T10:29:43;24.63;;;9.60;;
40339;SDS011;26044;50.864;20.658;2023-02-28T10:32:11;24.20;;;9.43;;
40339;SDS011;26044;50.864;20.658;2023-02-28T10:34:40;29.17;;;11.30;;
40339;SDS011;26044;50.864;20.658;2023-02-28T10:37:07;26.90;;;10.55;;
40339;SDS011;26044;50.864;20.658;2023-02-28T10:42:02;27.42;;;11.52;;
40339;SDS011;26044;50.864;20.658;2023-02-28T10:44:30;28.63;;;10.57;;
40339;SDS011;26044;50.864;20.658;2023-02-28T10:46:57;28.65;;;10.27;;
40339;SDS011;26044;50.864;20.658;2023-02-28T10:49:27;24.67;;;9.90;;
40339;SDS011;26044;50.864;20.658;2023-02-28T10:51:56;27.15;;;11.07;;
40339;SDS011;26044;50.864;20.658;2023-02-28T10:59:40;26.17;;;10.02;;
40339;SDS011;26044;50.864;20.658;2023-02-28T11:04:53;25.40;;;9.65;;
40339;SDS011;26044;50.864;20.658;2023-02-28T11:07:22;22.35;;;9.18;;
40339;SDS011;26044;50.864;20.658;2023-02-28T11:09:53;22.75;;;8.90;;
40339;SDS011;26044;50.864;20.658;2023-02-28T11:12:39;54.10;;;21.90;;
40339;SDS011;26044;50.864;20.658;2023-02-28T11:15:30;24.70;;;9.68;;
40339;SDS011;26044;50.864;20.658;2023-02-28T11:17:58;23.13;;;8.60;;
40339;SDS011;26044;50.864;20.658;2023-02-28T11:20:28;20.77;;;7.90;;
40339;SDS011;26044;50.864;20.658;2023-02-28T11:22:57;23.95;;;8.77;;
40339;SDS011;26044;50.864;20.658;2023-02-28T11:25:26;24.30;;;8.50;;
40339;SDS011;26044;50.864;20.658;2023-02-28T11:27:55;23.95;;;9.00;;
40339;SDS011;26044;50.864;20.658;2023-02-28T11:33:00;24.67;;;9.00;;
40339;SDS011;26044;50.864;20.658;2023-02-28T11:35:30;27.70;;;9.43;;
40339;SDS011;26044;50.864;20.658;2023-02-28T11:38:00;25.08;;;9.50;;
40339;SDS011;26044;50.864;20.658;2023-02-28T11:43:13;21.90;;;8.60;;
40339;SDS011;26044;50.864;20.658;2023-02-28T11:48:48;24.92;;;8.95;;
40339;SDS011;26044;50.864;20.658;2023-02-28T11:56:31;23.88;;;8.68;;
40339;SDS011;26044;50.864;20.658;2023-02-28T11:59:05;26.05;;;9.13;;
40339;SDS011;26044;50.864;20.658;2023-02-28T12:04:04;24.20;;;9.23;;
40339;SDS011;26044;50.864;20.658;2023-02-28T12:07:15;26.27;;;10.07;;
40339;SDS011;26044;50.864;20.658;2023-02-28T12:13:12;25.88;;;9.55;;
40339;SDS011;26044;50.864;20.658;2023-02-28T12:15:24;23.75;;;9.27;;
40339;SDS011;26044;50.864;20.658;2023-02-28T12:18:08;22.80;;;9.73;;
40339;SDS011;26044;50.864;20.658;2023-02-28T12:20:38;25.55;;;9.52;;
40339;SDS011;26044;50.864;20.658;2023-02-28T12:28:03;22.63;;;9.13;;
40339;SDS011;26044;50.864;20.658;2023-02-28T12:30:32;22.10;;;8.95;;
40339;SDS011;26044;50.864;20.658;2023-02-28T12:33:05;27.83;;;9.88;;
40339;SDS011;26044;50.864;20.658;2023-02-28T12:35:39;23.00;;;8.60;;
40339;SDS011;26044;50.864;20.658;2023-02-28T12:38:18;24.75;;;8.50;;
40339;SDS011;26044;50.864;20.658;2023-02-28T12:43:16;26.15;;;9.07;;
40339;SDS011;26044;50.864;20.658;2023-02-28T12:45:54;22.77;;;7.90;;
40339;SDS011;26044;50.864;20.658;2023-02-28T12:48:27;26.33;;;8.90;;
40339;SDS011;26044;50.864;20.658;2023-02-28T12:50:59;21.73;;;8.50;;
40339;SDS011;26044;50.864;20.658;2023-02-28T12:58:43;23.17;;;9.48;;
40339;SDS011;26044;50.864;20.658;2023-02-28T13:01:25;25.15;;;8.77;;
40339;SDS011;26044;50.864;20.658;2023-02-28T13:09:23;31.67;;;10.60;;
40339;SDS011;26044;50.864;20.658;2023-02-28T13:11:52;23.38;;;8.73;;
40339;SDS011;26044;50.864;20.658;2023-02-28T13:16:58;21.40;;;7.70;;
40339;SDS011;26044;50.864;20.658;2023-02-28T13:19:27;21.60;;;8.38;;
40339;SDS011;26044;50.864;20.658;2023-02-28T13:21:55;18.48;;;6.97;;
40339;SDS011;26044;50.864;20.658;2023-02-28T13:27:19;23.27;;;8.70;;
40339;SDS011;26044;50.864;20.658;2023-02-28T13:29:53;21.20;;;8.60;;
40339;SDS011;26044;50.864;20.658;2023-02-28T13:32:31;24.75;;;8.60;;
40339;SDS011;26044;50.864;20.658;2023-02-28T13:39:57;25.35;;;8.55;;
40339;SDS011;26044;50.864;20.658;2023-02-28T13:42:36;23.90;;;8.57;;
40339;SDS011;26044;50.864;20.658;2023-02-28T13:47:40;23.90;;;8.73;;
40339;SDS011;26044;50.864;20.658;2023-02-28T13:52:45;25.42;;;9.57;;
40339;SDS011;26044;50.864;20.658;2023-02-28T13:55:24;22.17;;;8.60;;
40339;SDS011;26044;50.864;20.658;2023-02-28T13:57:58;21.15;;;8.55;;
40339;SDS011;26044;50.864;20.658;2023-02-28T14:03:15;24.35;;;8.70;;
40339;SDS011;26044;50.864;20.658;2023-02-28T14:05:45;22.25;;;7.95;;
40339;SDS011;26044;50.864;20.658;2023-02-28T14:08:14;24.88;;;9.55;;
40339;SDS011;26044;50.864;20.658;2023-02-28T14:10:44;23.10;;;8.82;;
40339;SDS011;26044;50.864;20.658;2023-02-28T14:15:55;25.33;;;8.82;;
40339;SDS011;26044;50.864;20.658;2023-02-28T14:18:26;23.73;;;8.68;;
40339;SDS011;26044;50.864;20.658;2023-02-28T14:20:56;24.75;;;8.88;;
40339;SDS011;26044;50.864;20.658;2023-02-28T14:39:05;24.50;;;9.30;;
40339;SDS011;26044;50.864;20.658;2023-02-28T14:41:36;25.55;;;9.88;;
40339;SDS011;26044;50.864;20.658;2023-02-28T14:44:21;22.17;;;8.38;;
40339;SDS011;26044;50.864;20.658;2023-02-28T14:46:49;29.52;;;10.40;;
40339;SDS011;26044;50.864;20.658;2023-02-28T14:49:30;27.13;;;10.48;;
40339;SDS011;26044;50.864;20.658;2023-02-28T14:54:36;37.53;;;13.63;;
40339;SDS011;26044;50.864;20.658;2023-02-28T14:57:04;28.30;;;10.02;;
40339;SDS011;26044;50.864;20.658;2023-02-28T14:59:33;24.08;;;9.30;;
40339;SDS011;26044;50.864;20.658;2023-02-28T15:02:22;33.95;;;11.85;;
40339;SDS011;26044;50.864;20.658;2023-02-28T15:04:57;29.45;;;11.00;;
40339;SDS011;26044;50.864;20.658;2023-02-28T15:07:25;23.88;;;9.32;;
40339;SDS011;26044;50.864;20.658;2023-02-28T15:12:41;24.08;;;8.70;;
40339;SDS011;26044;50.864;20.658;2023-02-28T15:15:16;22.90;;;8.65;;
40339;SDS011;26044;50.864;20.658;2023-02-28T15:17:48;24.40;;;10.10;;
40339;SDS011;26044;50.864;20.658;2023-02-28T15:20:17;25.13;;;8.77;;
40339;SDS011;26044;50.864;20.658;2023-02-28T15:22:45;25.85;;;9.40;;
40339;SDS011;26044;50.864;20.658;2023-02-28T15:25:15;32.65;;;13.80;;
40339;SDS011;26044;50.864;20.658;2023-02-28T15:27:45;31.88;;;12.57;;
40339;SDS011;26044;50.864;20.658;2023-02-28T15:30:15;31.40;;;13.75;;
40339;SDS011;26044;50.864;20.658;2023-02-28T15:32:44;30.90;;;11.13;;
40339;SDS011;26044;50.864;20.658;2023-02-28T15:43:03;24.88;;;9.38;;
40339;SDS011;26044;50.864;20.658;2023-02-28T15:45:38;23.58;;;8.48;;
40339;SDS011;26044;50.864;20.658;2023-02-28T15:48:18;32.45;;;12.88;;
40339;SDS011;26044;50.864;20.658;2023-02-28T15:50:47;41.28;;;15.35;;
40339;SDS011;26044;50.864;20.658;2023-02-28T15:53:19;44.03;;;16.52;;
40339;SDS011;26044;50.864;20.658;2023-02-28T15:55:52;51.80;;;21.75;;
40339;SDS011;26044;50.864;20.658;2023-02-28T15:58:19;77.32;;;34.95;;
40339;SDS011;26044;50.864;20.658;2023-02-28T16:00:59;81.63;;;37.47;;
40339;SDS011;26044;50.864;20.658;2023-02-28T16:03:32;82.07;;;34.33;;
40339;SDS011;26044;50.864;20.658;2023-02-28T16:06:24;67.07;;;28.67;;
40339;SDS011;26044;50.864;20.658;2023-02-28T16:08:48;56.60;;;23.55;;
40339;SDS011;26044;50.864;20.658;2023-02-28T16:11:17;49.00;;;19.90;;
40339;SDS011;26044;50.864;20.658;2023-02-28T16:13:45;49.08;;;19.73;;
40339;SDS011;26044;50.864;20.658;2023-02-28T16:16:20;51.08;;;20.42;;
40339;SDS011;26044;50.864;20.658;2023-02-28T16:18:50;57.47;;;21.75;;
40339;SDS011;26044;50.864;20.658;2023-02-28T16:21:17;69.57;;;25.95;;
40339;SDS011;26044;50.864;20.658;2023-02-28T16:23:44;74.88;;;25.58;;
40339;SDS011;26044;50.864;20.658;2023-02-28T16:26:16;65.25;;;23.50;;
40339;SDS011;26044;50.864;20.658;2023-02-28T16:28:45;67.03;;;22.10;;
40339;SDS011;26044;50.864;20.658;2023-02-28T16:31:13;58.28;;;21.88;;
40339;SDS011;26044;50.864;20.658;2023-02-28T16:33:43;55.35;;;21.27;;
40339;SDS011;26044;50.864;20.658;2023-02-28T16:36:22;59.60;;;21.77;;
40339;SDS011;26044;50.864;20.658;2023-02-28T16:38:54;57.45;;;19.83;;
40339;SDS011;26044;50.864;20.658;2023-02-28T16:41:22;48.20;;;19.45;;
40339;SDS011;26044;50.864;20.658;2023-02-28T16:43:52;49.70;;;18.70;;
40339;SDS011;26044;50.864;20.658;2023-02-28T16:46:20;45.28;;;16.83;;
40339;SDS011;26044;50.864;20.658;2023-02-28T16:48:48;53.33;;;19.10;;
40339;SDS011;26044;50.864;20.658;2023-02-28T16:51:17;57.03;;;22.75;;
40339;SDS011;26044;50.864;20.658;2023-02-28T16:53:45;53.65;;;21.45;;
40339;SDS011;26044;50.864;20.658;2023-02-28T17:01:10;56.38;;;21.92;;
40339;SDS011;26044;50.864;20.658;2023-02-28T17:03:38;59.58;;;23.13;;
40339;SDS011;26044;50.864;20.658;2023-02-28T17:06:20;61.13;;;26.10;;